Latest Weather Observations for Coober Pedy Airport

IDS60801

Issued at 4:35 pm CST Saturday 26 July 2014 (issued every 30 minutes, with the page automatically refreshed every 10 minutes)

About weather observations | Map of weather stations | Latest weather observations for SA | Other Formats
Station Details ID: 016090 Name: COOBER PEDY AIRPORT Lat: -29.03 Lon: 134.72 Height: 225.0 m
Data from the previous 72 hours. | See also: Recent months at Coober Pedy Airport
Date/Time
CST
Temp
°C
App
Temp
°C
Dew
Point
Rel
Hum
%
Delta-T
°C
Wind Press
QNH
hPa
Press
MSL
hPa
Rain
since 9 am
mm
Dir
 
Spd
km/h
Gust
km/h
Spd
kts
Gust
kts
26/04:30pm 19.4 15.6 1.9 31 8.0 N 11 20 6 11 1025.3 - 0.0
26/04:00pm 19.6 15.5 2.0 31 8.1 NNW 13 20 7 11 1025.5 - 0.0
26/03:30pm 19.7 16.4 2.6 32 8.0 N 9 20 5 11 1025.5 - 0.0
26/03:00pm 20.1 16.5 2.9 32 8.1 NW 11 19 6 10 1025.5 1025.6 0.0
26/02:30pm 19.6 16.4 2.9 33 7.9 NNW 9 13 5 7 1025.8 - 0.0
26/02:00pm 19.2 16.4 3.0 34 7.6 WNW 7 20 4 11 1026.1 - 0.0
26/01:30pm 19.1 15.9 3.3 35 7.5 N 9 15 5 8 1026.6 - 0.0
26/01:00pm 18.5 15.7 3.2 36 7.2 W 7 15 4 8 1027.2 - 0.0
26/12:30pm 17.5 14.4 3.4 39 6.6 W 9 15 5 8 1027.8 - 0.0
26/12:00pm 18.0 15.3 3.5 38 6.8 N 7 17 4 9 1028.5 1028.5 0.0
26/11:30am 17.3 14.4 4.6 43 6.1 NE 9 17 5 9 1028.9 - 0.0
26/11:00am 16.5 13.7 5.2 47 5.5 NE 9 15 5 8 1029.3 - 0.0
26/10:30am 15.7 12.5 5.0 49 5.1 NE 11 15 6 8 1029.6 - 0.0
26/10:00am 15.2 12.8 5.4 52 4.7 E 7 9 4 5 1029.4 - 0.0
26/09:30am 14.4 13.4 5.5 55 4.3 CALM 0 2 0 1 1029.2 - 0.0
26/09:00am 12.4 11.5 6.2 66 2.9 CALM 0 0 0 0 1028.9 1028.9 0.0
26/08:30am 8.9 6.6 4.9 76 1.8 S 6 7 3 4 1028.7 - 0.0
26/08:00am 7.5 5.1 4.3 80 1.4 S 6 6 3 3 1028.4 - 0.0
26/07:30am 7.4 5.1 4.7 83 1.2 S 6 7 3 4 1028.0 - 0.0
26/07:00am 7.8 5.5 4.9 82 1.3 S 6 7 3 4 1027.7 - 0.0
26/06:30am 7.5 5.2 4.6 82 1.3 S 6 7 3 4 1027.5 - 0.0
26/06:00am 7.6 5.0 4.4 80 1.4 SSW 7 9 4 5 1027.2 1027.2 0.0
26/05:30am 7.0 4.4 4.1 82 1.3 SSW 7 7 4 4 1026.8 - 0.0
26/05:00am 8.1 5.5 4.3 77 1.7 SSW 7 9 4 5 1026.5 - 0.0
26/04:30am 7.8 4.4 4.2 78 1.6 SSW 11 11 6 6 1026.6 - 0.0
26/04:00am 6.9 3.5 4.0 82 1.3 SSW 11 13 6 7 1026.5 - 0.0
26/03:30am 7.6 4.7 4.7 82 1.3 SSW 9 9 5 5 1026.4 - 0.0
26/03:00am 7.5 5.1 4.5 81 1.3 SW 6 7 3 4 1026.3 1026.4 0.0
26/02:30am 7.9 5.4 5.0 82 1.3 SW 7 7 4 4 1026.3 - 0.0
26/02:00am 7.4 4.9 4.0 79 1.5 SW 6 7 3 4 1026.4 - 0.0
26/01:30am 7.7 5.1 4.3 79 1.5 SSW 7 9 4 5 1026.5 - 0.0
26/01:00am 7.6 5.0 4.2 79 1.5 SSW 7 9 4 5 1026.5 - 0.0
26/12:30am 8.3 5.8 4.5 77 1.7 SSW 7 9 4 5 1026.4 - 0.0
26/12:00am 8.5 5.9 4.3 75 1.9 SW 7 9 4 5 1026.6 1026.7 0.0
 
Date/Time
CST
Temp
°C
App
Temp
°C
Dew
Point
Rel
Hum
%
Delta-T
°C
Wind Press
QNH
hPa
Press
MSL
hPa
Rain
since 9 am
mm
Dir
 
Spd
km/h
Gust
km/h
Spd
kts
Gust
kts
25/11:30pm 8.7 6.1 4.1 73 2.0 WSW 7 7 4 4 1026.5 - 0.0
25/11:00pm 8.6 5.9 3.8 72 2.1 WSW 7 9 4 5 1026.5 - 0.0
25/10:30pm 10.3 7.0 4.5 67 2.6 SSW 11 13 6 7 1026.3 - 0.0
25/10:00pm 10.8 7.5 4.7 66 2.8 SSW 11 13 6 7 1026.0 - 0.0
25/09:30pm 10.1 6.8 4.5 68 2.5 WSW 11 11 6 6 1025.7 - 0.0
25/09:00pm 10.5 7.2 4.4 66 2.7 WSW 11 13 6 7 1025.5 1025.6 0.0
25/08:30pm 10.4 6.7 4.3 66 2.8 WSW 13 15 7 8 1025.3 - 0.0
25/08:00pm 10.7 6.9 4.0 63 3.0 WSW 13 13 7 7 1025.0 - 0.0
25/07:30pm 11.4 8.0 4.2 61 3.3 WSW 11 13 6 7 1024.6 - 0.0
25/07:00pm 12.3 8.5 4.0 57 3.8 WSW 13 13 7 7 1024.1 - 0.0
25/06:30pm 13.5 9.7 4.1 53 4.3 SW 13 15 7 8 1023.6 - 0.0
25/06:00pm 15.2 11.0 4.0 47 5.2 WSW 15 20 8 11 1023.3 1023.3 0.0
25/05:30pm 16.5 11.3 3.6 42 6.0 W 20 26 11 14 1022.8 - 0.0
25/05:00pm 17.0 11.8 3.7 41 6.3 WSW 20 26 11 14 1022.5 - 0.0
25/04:30pm 17.7 11.7 3.6 39 6.7 WSW 24 32 13 17 1022.3 - 0.0
25/04:00pm 18.0 11.7 3.9 39 6.7 WSW 26 33 14 18 1022.1 - 0.0
25/03:30pm 18.1 11.8 3.6 38 6.9 WSW 26 33 14 18 1021.8 - 0.0
25/03:00pm 17.5 11.5 3.4 39 6.6 WSW 24 32 13 17 1021.8 1021.9 0.0
25/02:30pm 17.7 11.4 3.9 40 6.6 W 26 33 14 18 1021.8 - 0.0
25/02:00pm 17.1 10.8 3.8 41 6.3 W 26 37 14 20 1022.0 - 0.0
25/01:30pm 16.8 12.0 4.8 45 5.8 W 19 24 10 13 1022.1 - 0.0
25/01:00pm 17.3 11.9 4.6 43 6.1 W 22 32 12 17 1022.5 - 0.0
25/12:30pm 16.9 12.1 4.9 45 5.8 W 19 28 10 15 1022.8 - 0.0
25/12:00pm 16.8 12.4 4.5 44 5.8 W 17 24 9 13 1023.2 1023.2 0.0
25/11:30am 16.0 11.6 5.0 48 5.3 W 17 24 9 13 1023.5 - 0.0
25/11:00am 15.5 11.3 5.7 52 4.7 W 17 24 9 13 1023.7 - 0.0
25/10:30am 14.6 10.7 7.2 61 3.7 W 17 20 9 11 1023.9 - 0.0
25/10:00am 13.3 10.0 8.2 71 2.6 W 15 20 8 11 1023.8 - 0.0
25/09:30am 12.0 8.8 8.3 78 1.8 W 15 19 8 10 1023.5 - 0.0
25/09:00am 10.5 7.2 8.1 85 1.2 WNW 15 19 8 10 1023.1 1023.1 0.0
25/08:30am 9.3 6.3 7.6 89 0.8 WNW 13 17 7 9 1022.8 - 0.0
25/08:00am 9.0 6.0 7.5 90 0.7 WNW 13 13 7 7 1022.4 - 0.0
25/07:30am 8.6 5.9 7.2 91 0.7 WNW 11 15 6 8 1022.0 - 0.0
25/07:00am 8.5 5.7 7.1 91 0.7 WNW 11 13 6 7 1021.5 - 0.0
25/06:30am 8.3 5.2 7.1 92 0.6 WNW 13 13 7 7 1021.0 - 0.0
25/06:00am 8.0 5.2 6.8 92 0.6 WNW 11 13 6 7 1020.6 1020.6 0.0
25/05:30am 7.6 4.7 6.4 92 0.6 W 11 13 6 7 1020.4 - 0.0
25/05:00am 7.5 3.8 6.4 93 0.5 W 15 17 8 9 1020.2 - 0.0
25/04:30am 7.1 3.3 5.7 91 0.6 WNW 15 15 8 8 1019.9 - 0.0
25/04:00am 7.5 4.2 6.3 92 0.6 WNW 13 15 7 8 1019.5 - 0.0
25/03:30am 7.3 3.5 5.9 91 0.6 NW 15 17 8 9 1019.2 - 0.0
25/03:00am 7.0 3.5 5.3 89 0.8 WNW 13 15 7 8 1019.1 1019.1 0.0
25/02:30am 7.9 4.9 6.0 88 0.9 W 11 13 6 7 1019.1 - 0.0
25/02:00am 8.4 5.5 6.4 87 0.9 W 11 13 6 7 1019.2 - 0.0
25/01:30am 8.9 5.3 6.9 87 0.9 WNW 15 19 8 10 1019.3 - 0.0
25/01:00am 7.6 3.9 6.2 91 0.6 WNW 15 17 8 9 1019.1 - 0.0
25/12:30am 7.2 3.7 5.5 89 0.8 WNW 13 15 7 8 1019.1 - 0.0
25/12:00am 7.5 4.4 5.6 88 0.9 WNW 11 13 6 7 1019.3 1019.3 0.0
 
Date/Time
CST
Temp
°C
App
Temp
°C
Dew
Point
Rel
Hum
%
Delta-T
°C
Wind Press
QNH
hPa
Press
MSL
hPa
Rain
since 9 am
mm
Dir
 
Spd
km/h
Gust
km/h
Spd
kts
Gust
kts
24/11:30pm 8.6 4.9 6.2 85 1.1 WNW 15 17 8 9 1019.1 - 0.0
24/11:00pm 8.8 5.1 6.2 84 1.2 NW 15 17 8 9 1019.3 - 0.0
24/10:30pm 9.2 5.5 6.1 81 1.4 NW 15 17 8 9 1019.1 - 0.0
24/10:00pm 9.3 5.5 6.0 80 1.5 NW 15 17 8 9 1018.9 - 0.0
24/09:30pm 9.5 5.3 5.7 77 1.8 NW 17 17 9 9 1018.7 - 0.0
24/09:00pm 9.9 6.0 5.5 74 2.0 NW 15 17 8 9 1018.4 1018.4 0.0
24/08:30pm 10.4 7.3 5.6 72 2.2 WNW 11 13 6 7 1018.1 - 0.0
24/08:00pm 11.4 8.4 5.9 69 2.6 WNW 11 11 6 6 1017.8 - 0.0
24/07:30pm 11.5 8.0 5.6 67 2.8 W 13 15 7 8 1017.4 - 0.0
24/07:00pm 12.4 8.5 5.3 62 3.3 W 15 17 8 9 1017.0 - 0.0
24/06:30pm 13.5 9.2 5.4 58 3.8 W 17 19 9 10 1016.7 - 0.0
24/06:00pm 15.0 10.4 5.5 53 4.6 W 19 26 10 14 1016.3 1016.3 0.0
24/05:30pm 15.1 9.9 5.3 52 4.7 W 22 28 12 15 1016.2 - 0.0
24/05:00pm 15.5 10.7 5.7 52 4.7 W 20 28 11 15 1015.9 - 0.0
24/04:30pm 15.9 11.3 5.5 50 5.0 W 19 26 10 14 1015.8 - 0.0
24/04:00pm 16.3 11.7 6.4 52 4.9 W 20 30 11 16 1015.7 - 0.0
24/03:30pm 16.0 11.0 6.4 53 4.7 WSW 22 30 12 16 1015.6 - 0.0
24/03:00pm 15.6 10.4 7.1 57 4.2 WSW 24 30 13 16 1015.6 1015.6 0.0
24/02:30pm 14.9 10.1 7.2 60 3.8 W 22 30 12 16 1015.6 - 0.0
24/02:00pm 14.2 9.4 7.5 64 3.3 WSW 22 30 12 16 1015.9 - 0.0
24/01:30pm 13.7 8.6 7.7 67 3.0 W 24 33 13 18 1016.3 - 0.0
24/01:00pm 12.9 7.4 7.6 70 2.6 WSW 26 32 14 17 1016.6 - 0.0
24/12:49pm 12.7 7.9 7.4 70 2.6 WSW 22 30 12 16 1016.8 - 0.0
24/12:30pm 12.8 7.7 7.7 71 2.5 W 24 32 13 17 1017.1 - 0.0
24/12:00pm 12.2 7.2 7.9 75 2.1 WSW 24 33 13 18 1017.5 1017.5 0.0
24/11:30am 11.3 6.3 8.0 80 1.6 W 24 33 13 18 1018.1 - 0.0
24/11:00am 10.2 5.6 8.1 87 1.0 WSW 22 30 12 16 1018.2 - 0.0
24/10:30am 8.9 3.5 8.0 94 0.4 WSW 26 32 14 17 1018.2 - 0.0
24/10:00am 8.5 3.1 8.1 97 0.2 WSW 26 37 14 20 1018.3 - 0.0
24/09:30am 8.1 3.0 7.7 97 0.2 W 24 30 13 16 1018.0 - 0.0
24/09:00am 7.7 3.5 7.3 97 0.2 W 19 24 10 13 1017.4 1017.4 1.4
24/08:30am 7.4 2.9 7.0 97 0.2 W 20 24 11 13 1017.1 - 1.4
24/08:00am 7.1 3.1 6.7 97 0.2 W 17 20 9 11 1016.8 - 1.4
24/07:30am 7.1 2.5 6.7 97 0.2 WSW 20 26 11 14 1016.1 - 1.4
24/07:12am 6.6 2.1 6.0 96 0.3 W 19 22 10 12 1015.7 - 1.4
24/07:00am 6.6 2.4 5.9 95 0.3 SW 17 22 9 12 1015.1 - 1.4
24/06:30am 6.6 1.9 5.9 95 0.3 SW 20 24 11 13 1014.4 - 1.4
24/06:00am 6.6 2.4 5.6 93 0.4 WSW 17 20 9 11 1014.8 1014.8 1.4
24/05:30am 7.0 2.3 5.9 93 0.5 WSW 20 24 11 13 1014.4 - 1.4
24/05:00am 7.0 2.5 5.9 93 0.5 WSW 19 22 10 12 1014.6 - 1.4
24/04:30am 7.1 2.4 5.9 92 0.5 W 20 24 11 13 1014.8 - 1.4
24/04:00am 7.2 3.0 5.8 91 0.6 W 17 20 9 11 1014.9 - 1.4
24/03:30am 7.7 3.0 6.2 90 0.7 W 20 24 11 13 1015.0 - 1.4
24/03:00am 7.6 2.9 5.9 89 0.8 W 20 22 11 12 1015.1 1015.1 1.4
24/02:30am 7.9 3.2 5.9 87 0.9 W 20 22 11 12 1015.2 - 1.4
24/02:00am 8.1 3.4 5.9 86 1.0 W 20 24 11 13 1015.1 - 1.4
24/01:30am 8.4 3.9 5.9 84 1.2 W 19 22 10 12 1015.1 - 1.4
24/01:00am 8.4 3.9 5.9 84 1.2 W 19 22 10 12 1015.0 - 1.4
24/12:30am 8.6 4.0 5.7 82 1.3 W 19 22 10 12 1015.1 - 1.4
24/12:00am 8.4 4.2 5.7 83 1.2 W 17 20 9 11 1014.8 1014.8 1.4
 
Date/Time
CST
Temp
°C
App
Temp
°C
Dew
Point
Rel
Hum
%
Delta-T
°C
Wind Press
QNH
hPa
Press
MSL
hPa
Rain
since 9 am
mm
Dir
 
Spd
km/h
Gust
km/h
Spd
kts
Gust
kts
23/11:30pm 8.2 4.4 5.7 84 1.1 WNW 15 17 8 9 1015.0 - 1.4
23/11:00pm 8.8 4.9 5.5 80 1.5 W 15 17 8 9 1014.8 - 1.4
23/10:30pm 9.0 5.2 5.7 80 1.5 W 15 17 8 9 1014.9 - 1.4
23/10:00pm 9.0 5.5 5.4 78 1.6 WNW 13 13 7 7 1014.8 - 1.4
23/09:30pm 10.3 6.1 5.5 72 2.2 W 17 19 9 10 1014.8 - 1.4
23/09:00pm 11.0 6.7 5.3 68 2.6 W 17 20 9 11 1014.6 1014.6 1.4
23/08:30pm 11.5 6.9 5.4 66 2.8 WSW 19 22 10 12 1014.5 - 1.4
23/08:00pm 11.6 7.3 5.3 65 2.9 W 17 20 9 11 1014.3 - 1.4
23/07:30pm 12.3 7.9 5.0 61 3.4 W 17 20 9 11 1014.1 - 1.4
23/07:00pm 13.6 7.8 4.5 54 4.2 W 24 30 13 16 1013.7 - 1.4
23/06:30pm 14.6 7.6 4.0 49 4.9 W 30 39 16 21 1013.4 - 1.4
23/06:00pm 15.4 8.4 3.9 46 5.4 W 30 39 16 21 1012.6 1012.6 1.4
23/05:30pm 16.5 8.7 2.9 40 6.3 W 33 41 18 22 1012.4 - 1.4
23/05:00pm 17.5 8.8 1.9 35 7.1 W 37 50 20 27 1012.2 - 1.4

Other Formats:

Comma delimited format used in spreadsheet applications
http://www.bom.gov.au/fwo/IDS60801/IDS60801.95458.axf

JavaScript Object Notation format (JSON) in row-major order
http://www.bom.gov.au/fwo/IDS60801/IDS60801.95458.json